createdAt,value
2022-12-09T00:01:16.765Z,2.70
2022-12-09T00:03:44.176Z,2.70
2022-12-09T00:06:17.605Z,2.80
2022-12-09T00:08:45.267Z,2.80
2022-12-09T00:11:12.841Z,2.80
2022-12-09T00:13:40.282Z,2.70
2022-12-09T00:16:14.023Z,2.70
2022-12-09T00:18:41.964Z,2.70
2022-12-09T00:21:32.862Z,2.70
2022-12-09T00:24:02.891Z,2.80
2022-12-09T00:26:30.700Z,2.70
2022-12-09T00:28:58.680Z,2.70
2022-12-09T00:31:32.772Z,2.60
2022-12-09T00:34:04.019Z,2.60
2022-12-09T00:36:30.951Z,2.60
2022-12-09T00:38:59.450Z,2.50
2022-12-09T00:41:28.316Z,2.50
2022-12-09T00:43:56.147Z,2.50
2022-12-09T00:46:23.263Z,2.40
2022-12-09T00:48:50.525Z,2.40
2022-12-09T00:51:21.419Z,2.40
2022-12-09T00:53:55.911Z,2.40
2022-12-09T00:56:29.960Z,2.40
2022-12-09T00:58:58.737Z,2.40
2022-12-09T01:01:26.682Z,2.40
2022-12-09T01:03:53.882Z,2.30
2022-12-09T01:06:25.583Z,2.30
2022-12-09T01:08:52.895Z,2.30
2022-12-09T01:11:24.398Z,2.30
2022-12-09T01:13:52.547Z,2.30
2022-12-09T01:16:24.891Z,2.30
2022-12-09T01:18:55.358Z,2.30
2022-12-09T01:21:22.249Z,2.40
2022-12-09T01:23:49.438Z,2.30
2022-12-09T01:26:17.993Z,2.30
2022-12-09T01:28:47.047Z,2.30
2022-12-09T01:31:18.030Z,2.30
2022-12-09T01:33:45.399Z,2.30
2022-12-09T01:36:18.066Z,2.30
2022-12-09T01:38:47.249Z,2.30
2022-12-09T01:41:16.616Z,2.30
2022-12-09T01:43:44.090Z,2.30
2022-12-09T01:46:11.388Z,2.30
2022-12-09T01:48:43.434Z,2.30
2022-12-09T01:51:19.991Z,2.30
2022-12-09T01:53:50.383Z,2.30
2022-12-09T01:56:32.112Z,2.30
2022-12-09T01:59:11.719Z,2.30
2022-12-09T02:01:39.659Z,2.20
2022-12-09T02:04:07.005Z,2.30
2022-12-09T02:06:38.524Z,2.20
2022-12-09T02:09:06.017Z,2.20
2022-12-09T02:11:44.729Z,2.20
2022-12-09T02:14:55.765Z,2.20
2022-12-09T02:17:51.128Z,2.20
2022-12-09T02:20:29.157Z,2.20
2022-12-09T02:23:24.378Z,2.30
2022-12-09T02:26:07.994Z,2.20
2022-12-09T02:29:16.111Z,2.30
2022-12-09T02:32:26.133Z,2.30
2022-12-09T02:35:05.600Z,2.30
2022-12-09T02:37:54.269Z,2.30
2022-12-09T02:40:35.754Z,2.30
2022-12-09T02:43:06.605Z,2.30
2022-12-09T02:45:36.663Z,2.30
2022-12-09T02:48:06.267Z,2.40
2022-12-09T02:50:37.471Z,2.40
2022-12-09T02:53:10.496Z,2.40
2022-12-09T02:55:39.923Z,2.50
2022-12-09T02:58:06.850Z,2.50
2022-12-09T03:00:34.134Z,2.50
2022-12-09T03:03:10.637Z,2.50
2022-12-09T03:05:52.117Z,2.50
2022-12-09T03:08:48.314Z,2.60
2022-12-09T03:11:24.308Z,2.60
2022-12-09T03:14:40.469Z,2.60
2022-12-09T03:17:25.334Z,2.60
2022-12-09T03:20:00.460Z,2.50
2022-12-09T03:22:33.829Z,2.50
2022-12-09T03:25:15.437Z,2.50
2022-12-09T03:27:55.977Z,2.50
2022-12-09T03:30:23.170Z,2.50
2022-12-09T03:32:54.862Z,2.40
2022-12-09T03:35:34.214Z,2.40
2022-12-09T03:38:06.768Z,2.40
2022-12-09T03:40:36.572Z,2.30
2022-12-09T03:43:18.588Z,2.30
2022-12-09T03:45:46.618Z,2.30
2022-12-09T03:48:14.037Z,2.30
2022-12-09T03:50:59.518Z,2.30
2022-12-09T03:53:38.611Z,2.20
2022-12-09T03:56:15.936Z,2.20
2022-12-09T03:58:47.443Z,2.20
2022-12-09T04:01:15.294Z,2.20
2022-12-09T04:03:46.222Z,2.20
2022-12-09T04:06:13.229Z,2.20
2022-12-09T04:08:40.140Z,2.20
2022-12-09T04:11:07.389Z,2.20
2022-12-09T04:13:34.416Z,2.20
2022-12-09T04:16:01.357Z,2.10
2022-12-09T04:18:28.277Z,2.10
2022-12-09T04:20:55.573Z,2.20
2022-12-09T04:23:22.756Z,2.10
2022-12-09T04:25:49.927Z,2.20
2022-12-09T04:28:17.220Z,2.20
2022-12-09T04:30:48.188Z,2.20
2022-12-09T04:33:15.258Z,2.20
2022-12-09T04:35:42.415Z,2.20
2022-12-09T04:38:09.593Z,2.20
2022-12-09T04:40:36.808Z,2.20
2022-12-09T04:43:03.890Z,2.20
2022-12-09T04:45:31.078Z,2.30
2022-12-09T04:48:01.349Z,2.30
2022-12-09T04:50:28.345Z,2.30
2022-12-09T04:52:55.315Z,2.30
2022-12-09T04:55:22.462Z,2.30
2022-12-09T04:57:49.355Z,2.30
2022-12-09T05:00:17.499Z,2.30
2022-12-09T05:02:44.816Z,2.30
2022-12-09T05:05:12.367Z,2.30
2022-12-09T05:07:39.689Z,2.30
2022-12-09T05:10:08.082Z,2.30
2022-12-09T05:12:35.524Z,2.30
2022-12-09T05:15:02.870Z,2.40
2022-12-09T05:17:29.783Z,2.30
2022-12-09T05:19:56.894Z,2.30
2022-12-09T05:22:23.936Z,2.40
2022-12-09T05:24:51.380Z,2.40
2022-12-09T05:27:18.457Z,2.40
2022-12-09T05:29:46.349Z,2.40
2022-12-09T05:32:13.220Z,2.40
2022-12-09T05:34:40.359Z,2.40
2022-12-09T05:37:07.640Z,2.40
2022-12-09T05:39:34.518Z,2.40
2022-12-09T05:42:01.336Z,2.50
2022-12-09T05:44:28.487Z,2.50
2022-12-09T05:46:55.660Z,2.40
2022-12-09T05:49:23.025Z,2.40
2022-12-09T05:51:50.267Z,2.40
2022-12-09T05:54:17.345Z,2.50
2022-12-09T05:56:48.109Z,2.40
2022-12-09T05:59:15.861Z,2.40
2022-12-09T06:01:42.721Z,2.40
2022-12-09T06:04:10.177Z,2.40
2022-12-09T06:06:37.404Z,2.40
2022-12-09T06:09:08.654Z,2.40
2022-12-09T06:11:36.176Z,2.40
2022-12-09T06:14:04.343Z,2.40
2022-12-09T06:16:32.043Z,2.40
2022-12-09T06:18:59.340Z,2.50
2022-12-09T06:21:26.689Z,2.50
2022-12-09T06:23:54.347Z,2.50
2022-12-09T06:26:24.578Z,2.50
2022-12-09T06:28:52.892Z,2.50
2022-12-09T06:31:20.671Z,2.60
2022-12-09T06:33:58.128Z,2.70
2022-12-09T06:36:29.595Z,2.60
2022-12-09T06:39:05.863Z,2.70
2022-12-09T06:41:35.122Z,2.70
2022-12-09T06:44:02.133Z,2.70
2022-12-09T06:46:29.573Z,2.80
2022-12-09T06:48:56.926Z,2.80
2022-12-09T06:51:26.084Z,2.70
2022-12-09T06:53:54.300Z,2.80
2022-12-09T06:56:21.643Z,2.80
2022-12-09T06:58:49.024Z,2.80
2022-12-09T07:01:21.816Z,2.80
2022-12-09T07:03:54.487Z,2.90
2022-12-09T07:06:39.281Z,2.90
2022-12-09T07:09:20.912Z,3.00
2022-12-09T07:11:49.066Z,3.00
2022-12-09T07:14:18.334Z,3.00
2022-12-09T07:16:46.953Z,3.10
2022-12-09T07:19:21.212Z,3.10
2022-12-09T07:21:50.854Z,3.10
2022-12-09T07:24:19.376Z,3.10
2022-12-09T07:26:47.732Z,3.20
2022-12-09T07:29:15.319Z,3.20
2022-12-09T07:31:43.065Z,3.20
2022-12-09T07:34:11.763Z,3.20
2022-12-09T07:36:38.859Z,3.30
2022-12-09T07:39:14.063Z,3.30
2022-12-09T07:41:41.531Z,3.30
2022-12-09T07:44:11.128Z,3.40
2022-12-09T07:46:39.688Z,3.50
2022-12-09T07:49:07.336Z,3.40
2022-12-09T07:51:34.810Z,3.50
2022-12-09T07:54:01.974Z,3.50
2022-12-09T07:56:29.373Z,3.50
2022-12-09T07:58:57.612Z,3.60
2022-12-09T08:01:29.303Z,3.60
2022-12-09T08:03:56.930Z,3.70
2022-12-09T08:06:27.580Z,3.70
2022-12-09T08:08:59.840Z,3.70
2022-12-09T08:11:30.372Z,3.80
2022-12-09T08:14:05.728Z,3.80
2022-12-09T08:16:36.703Z,3.80
2022-12-09T08:19:04.442Z,3.90
2022-12-09T08:21:33.540Z,3.90
2022-12-09T08:24:05.911Z,4.00
2022-12-09T08:26:35.030Z,3.90
2022-12-09T08:29:02.628Z,4.00
2022-12-09T08:31:30.327Z,4.00
2022-12-09T08:33:58.615Z,4.00
2022-12-09T08:36:28.394Z,4.10
2022-12-09T08:38:59.574Z,4.10
2022-12-09T08:41:38.172Z,4.20
2022-12-09T08:44:17.093Z,4.20
2022-12-09T08:46:48.279Z,4.30
2022-12-09T08:49:22.096Z,4.30
2022-12-09T08:51:51.818Z,4.30
2022-12-09T08:54:19.810Z,4.30
2022-12-09T08:56:55.169Z,4.30
2022-12-09T08:59:23.764Z,4.40
2022-12-09T09:01:51.429Z,4.40
2022-12-09T09:04:21.857Z,4.40
2022-12-09T09:06:51.448Z,4.40
2022-12-09T09:09:21.271Z,4.50
2022-12-09T09:11:49.608Z,4.50
2022-12-09T09:14:16.653Z,4.50
2022-12-09T09:16:45.541Z,4.50
2022-12-09T09:19:22.870Z,4.50
2022-12-09T09:21:50.796Z,4.50
2022-12-09T09:24:21.584Z,4.50
2022-12-09T09:26:51.732Z,4.50
2022-12-09T09:29:22.128Z,4.60
2022-12-09T09:31:54.725Z,4.50
2022-12-09T09:34:24.038Z,4.50
2022-12-09T09:36:51.394Z,4.60
2022-12-09T09:39:20.167Z,4.50
2022-12-09T09:41:56.523Z,4.50
2022-12-09T09:44:40.152Z,4.50
2022-12-09T09:47:38.287Z,4.60
2022-12-09T09:50:27.482Z,4.70
2022-12-09T09:52:56.280Z,4.60
2022-12-09T09:55:48.233Z,4.60
2022-12-09T09:58:45.790Z,4.60
2022-12-09T10:01:20.399Z,4.70
2022-12-09T10:04:18.910Z,4.70
2022-12-09T10:07:12.491Z,4.80
2022-12-09T10:09:59.736Z,4.70
2022-12-09T10:13:09.528Z,4.80
2022-12-09T10:15:59.709Z,4.70
2022-12-09T10:18:36.991Z,4.70
2022-12-09T10:21:21.709Z,4.70
2022-12-09T10:23:50.672Z,4.80
2022-12-09T10:26:27.426Z,4.70
2022-12-09T10:29:16.269Z,4.70
2022-12-09T10:31:43.676Z,4.80
2022-12-09T10:34:14.233Z,4.70
2022-12-09T10:36:46.133Z,4.70
2022-12-09T10:39:22.034Z,4.70
2022-12-09T10:42:13.537Z,4.70
2022-12-09T10:44:41.133Z,4.70
2022-12-09T10:47:28.225Z,4.70
2022-12-09T10:49:56.300Z,4.80
2022-12-09T10:52:43.147Z,4.70
2022-12-09T10:55:31.436Z,4.70
2022-12-09T10:58:21.798Z,4.70
2022-12-09T11:01:18.597Z,4.80
2022-12-09T11:03:54.788Z,4.70
2022-12-09T11:06:38.180Z,4.80
2022-12-09T11:09:05.374Z,4.80
2022-12-09T11:12:05.670Z,4.80
2022-12-09T11:14:40.787Z,4.90
2022-12-09T11:17:16.056Z,4.90
2022-12-09T11:19:54.279Z,4.90
2022-12-09T11:22:41.097Z,4.90
2022-12-09T11:25:30.323Z,4.90
2022-12-09T11:28:23.058Z,5.00
2022-12-09T11:31:26.979Z,4.90
2022-12-09T11:33:58.099Z,4.90
2022-12-09T11:36:32.665Z,4.90
2022-12-09T11:39:26.286Z,5.00
2022-12-09T11:42:19.265Z,4.90
2022-12-09T11:45:06.722Z,4.90
2022-12-09T11:48:21.614Z,5.00
2022-12-09T11:50:32.935Z,5.10
2022-12-09T11:53:12.019Z,5.10
2022-12-09T11:55:51.915Z,5.10
2022-12-09T11:58:36.514Z,5.20
2022-12-09T12:01:12.090Z,5.20
2022-12-09T12:03:50.087Z,5.20
2022-12-09T12:06:28.815Z,5.20
2022-12-09T12:09:13.903Z,5.30
2022-12-09T12:12:20.362Z,5.30
2022-12-09T12:14:47.214Z,5.30
2022-12-09T12:17:27.524Z,5.30
2022-12-09T12:19:56.342Z,5.30
2022-12-09T12:22:55.076Z,5.40
2022-12-09T12:25:46.271Z,5.40
2022-12-09T12:28:41.149Z,5.40
2022-12-09T12:31:48.133Z,5.40
2022-12-09T12:34:39.248Z,5.40
2022-12-09T12:37:54.309Z,5.40
2022-12-09T12:41:02.829Z,5.40
2022-12-09T12:44:03.143Z,5.40
2022-12-09T12:46:42.379Z,5.40
2022-12-09T12:50:12.303Z,5.40
2022-12-09T12:52:56.449Z,5.40
2022-12-09T12:55:46.627Z,5.50
2022-12-09T12:58:50.221Z,5.40
2022-12-09T13:01:54.024Z,5.50
2022-12-09T13:04:39.039Z,5.60
2022-12-09T13:07:28.660Z,5.50
2022-12-09T13:10:09.060Z,5.50
2022-12-09T13:12:54.618Z,5.50
2022-12-09T13:15:42.253Z,5.50
2022-12-09T13:18:17.264Z,5.50
2022-12-09T13:20:53.845Z,5.50
2022-12-09T13:23:31.290Z,5.50
2022-12-09T13:27:05.599Z,5.40
2022-12-09T13:30:36.104Z,5.40
2022-12-09T13:33:18.321Z,5.40
2022-12-09T13:36:22.148Z,5.40
2022-12-09T13:38:49.584Z,5.40
2022-12-09T13:41:51.729Z,5.50
2022-12-09T13:44:19.439Z,5.30
2022-12-09T13:46:46.378Z,5.40
2022-12-09T13:49:29.609Z,5.30
2022-12-09T13:51:56.667Z,5.30
2022-12-09T13:54:27.451Z,5.30
2022-12-09T13:57:19.784Z,5.30
2022-12-09T14:00:01.695Z,5.30
2022-12-09T14:02:35.606Z,5.30
2022-12-09T14:05:30.913Z,5.30
2022-12-09T14:08:16.262Z,5.30
2022-12-09T14:10:47.715Z,5.30
2022-12-09T14:13:41.037Z,5.20
2022-12-09T14:16:26.447Z,5.30
2022-12-09T14:18:56.100Z,5.30
2022-12-09T14:21:27.933Z,5.20
2022-12-09T14:24:12.640Z,5.20
2022-12-09T14:26:45.240Z,5.20
2022-12-09T14:29:44.223Z,5.20
2022-12-09T14:32:36.860Z,5.30
2022-12-09T14:35:06.926Z,5.20
2022-12-09T14:37:57.450Z,5.20
2022-12-09T14:40:54.341Z,5.20
2022-12-09T14:44:04.579Z,5.20
2022-12-09T14:46:38.750Z,5.20
2022-12-09T14:49:22.303Z,5.20
2022-12-09T14:51:54.794Z,5.20
2022-12-09T14:54:37.285Z,5.20
2022-12-09T14:57:16.119Z,5.20
2022-12-09T14:59:53.809Z,5.10
2022-12-09T15:02:30.757Z,5.20
2022-12-09T15:05:01.360Z,5.10
2022-12-09T15:07:32.673Z,5.20
2022-12-09T15:10:04.152Z,5.10
2022-12-09T15:12:40.242Z,5.10
2022-12-09T15:15:31.412Z,5.10
2022-12-09T15:18:06.056Z,5.10
2022-12-09T15:20:37.803Z,5.10
2022-12-09T15:23:20.729Z,5.20
2022-12-09T15:25:50.369Z,5.10
2022-12-09T15:28:26.759Z,5.10
2022-12-09T15:31:26.892Z,5.10
2022-12-09T15:34:07.613Z,5.10
2022-12-09T15:36:39.687Z,5.10
2022-12-09T15:39:29.573Z,5.10
2022-12-09T15:42:14.518Z,5.10
2022-12-09T15:45:14.450Z,5.10
2022-12-09T15:47:55.308Z,5.10
2022-12-09T15:50:27.026Z,5.10
2022-12-09T15:53:22.998Z,5.10
2022-12-09T15:56:00.182Z,5.10
2022-12-09T15:58:38.641Z,5.10
2022-12-09T16:01:05.978Z,5.00
2022-12-09T16:03:35.561Z,5.00
2022-12-09T16:06:09.048Z,5.00
2022-12-09T16:08:43.387Z,5.00
2022-12-09T16:11:11.746Z,5.00
2022-12-09T16:13:59.823Z,5.00
2022-12-09T16:16:40.822Z,5.00
2022-12-09T16:19:41.573Z,5.00
2022-12-09T16:22:11.447Z,5.00
2022-12-09T16:25:13.590Z,5.00
2022-12-09T16:27:39.355Z,5.10
2022-12-09T16:30:27.462Z,5.20
2022-12-09T16:32:57.707Z,5.00
2022-12-09T16:35:27.472Z,5.10
2022-12-09T16:37:57.358Z,5.10
2022-12-09T16:40:24.151Z,5.10
2022-12-09T16:42:54.235Z,5.10
2022-12-09T16:45:37.874Z,5.10
2022-12-09T16:48:05.082Z,5.10
2022-12-09T16:50:36.813Z,5.10
2022-12-09T16:53:11.993Z,5.00
2022-12-09T16:55:38.912Z,5.10
2022-12-09T16:58:06.135Z,5.10
2022-12-09T17:00:32.918Z,5.10
2022-12-09T17:03:04.497Z,5.10
2022-12-09T17:05:31.909Z,5.10
2022-12-09T17:07:59.007Z,5.10
2022-12-09T17:10:25.897Z,5.10
2022-12-09T17:12:52.862Z,5.10
2022-12-09T17:15:21.154Z,5.10
2022-12-09T17:17:49.102Z,5.10
2022-12-09T17:20:16.905Z,5.20
2022-12-09T17:22:44.064Z,5.10
2022-12-09T17:25:11.350Z,5.10
2022-12-09T17:27:38.177Z,5.10
2022-12-09T17:30:06.199Z,5.10
2022-12-09T17:32:33.089Z,5.20
2022-12-09T17:34:59.945Z,5.30
2022-12-09T17:37:26.723Z,5.10
2022-12-09T17:39:59.705Z,5.30
2022-12-09T17:42:30.015Z,5.20
2022-12-09T17:44:57.089Z,5.20
2022-12-09T17:47:23.976Z,5.20
2022-12-09T17:49:50.807Z,5.20
2022-12-09T17:52:17.637Z,5.20
2022-12-09T17:54:45.775Z,5.20
2022-12-09T17:57:12.699Z,5.20
2022-12-09T17:59:39.698Z,5.20
2022-12-09T18:02:07.142Z,5.20
2022-12-09T18:04:34.157Z,5.20
2022-12-09T18:07:01.025Z,5.20
2022-12-09T18:09:27.861Z,5.20
2022-12-09T18:11:54.747Z,5.20
2022-12-09T18:14:21.743Z,5.20
2022-12-09T18:16:49.269Z,5.20
2022-12-09T18:19:20.190Z,5.20
2022-12-09T18:21:47.052Z,5.20
2022-12-09T18:24:14.059Z,5.20
2022-12-09T18:26:42.236Z,5.20
2022-12-09T18:29:11.145Z,5.20
2022-12-09T18:31:38.528Z,5.20
2022-12-09T18:34:05.518Z,5.10
2022-12-09T18:36:32.461Z,5.10
2022-12-09T18:38:59.754Z,5.20
2022-12-09T18:41:30.680Z,5.10
2022-12-09T18:44:02.424Z,5.20
2022-12-09T18:46:37.003Z,5.20
2022-12-09T18:49:20.464Z,5.20
2022-12-09T18:51:50.314Z,5.10
2022-12-09T18:54:36.512Z,5.10
2022-12-09T18:57:03.856Z,5.20
2022-12-09T18:59:31.869Z,5.10
2022-12-09T19:01:59.120Z,5.10
2022-12-09T19:04:29.289Z,5.10
2022-12-09T19:06:59.932Z,5.20
2022-12-09T19:09:34.753Z,5.20
2022-12-09T19:12:30.090Z,5.20
2022-12-09T19:14:51.471Z,5.20
2022-12-09T19:17:18.857Z,5.10
2022-12-09T19:19:47.296Z,5.20
2022-12-09T19:22:14.599Z,5.10
2022-12-09T19:24:43.398Z,5.20
2022-12-09T19:27:10.604Z,5.10
2022-12-09T19:29:37.766Z,5.10
2022-12-09T19:32:13.884Z,5.10
2022-12-09T19:34:50.754Z,5.10
2022-12-09T19:37:17.850Z,5.20
2022-12-09T19:39:46.546Z,5.10
2022-12-09T19:42:13.385Z,5.20
2022-12-09T19:47:27.162Z,5.20
2022-12-09T19:49:53.979Z,5.20
2022-12-09T19:52:20.987Z,5.20
2022-12-09T19:54:47.809Z,5.20
2022-12-09T19:57:14.907Z,5.20
2022-12-09T19:59:41.734Z,5.10
2022-12-09T20:02:11.997Z,5.10
2022-12-09T20:04:48.741Z,5.10
2022-12-09T20:07:17.071Z,5.10
2022-12-09T20:09:44.117Z,5.10
2022-12-09T20:12:11.350Z,5.10
2022-12-09T20:14:39.950Z,5.10
2022-12-09T20:17:07.781Z,5.10
2022-12-09T20:19:35.900Z,5.10
2022-12-09T20:22:03.002Z,5.10
2022-12-09T20:24:30.349Z,5.10
2022-12-09T20:26:57.302Z,5.10
2022-12-09T20:29:24.186Z,5.10
2022-12-09T20:31:53.214Z,5.10
2022-12-09T20:34:20.132Z,5.10
2022-12-09T20:36:47.205Z,5.10
2022-12-09T20:39:21.024Z,5.00
2022-12-09T20:41:49.321Z,5.10
2022-12-09T20:44:17.824Z,5.10
2022-12-09T20:46:49.635Z,5.10
2022-12-09T20:49:17.352Z,5.10
2022-12-09T20:51:45.448Z,5.10
2022-12-09T20:54:13.444Z,5.10
2022-12-09T20:56:47.217Z,5.10
2022-12-09T20:59:14.028Z,5.10
2022-12-09T21:01:41.671Z,5.10
2022-12-09T21:04:08.587Z,5.00
2022-12-09T21:06:39.562Z,5.10
2022-12-09T21:09:14.933Z,5.00
2022-12-09T21:11:41.982Z,5.00
2022-12-09T21:14:11.263Z,5.00
2022-12-09T21:16:42.046Z,5.00
2022-12-09T21:19:12.748Z,5.00
2022-12-09T21:21:43.205Z,5.00
2022-12-09T21:24:11.994Z,5.10
2022-12-09T21:26:39.835Z,5.10
2022-12-09T21:29:08.424Z,5.00
2022-12-09T21:31:37.834Z,5.00
2022-12-09T21:34:07.040Z,5.10
2022-12-09T21:36:37.827Z,5.00
2022-12-09T21:39:05.998Z,5.10
2022-12-09T21:41:36.374Z,5.10
2022-12-09T21:44:04.533Z,5.10
2022-12-09T21:46:35.477Z,5.10
2022-12-09T21:49:05.710Z,5.10
2022-12-09T21:51:35.058Z,5.10
2022-12-09T21:54:03.453Z,5.10
2022-12-09T21:56:35.048Z,5.10
2022-12-09T21:59:03.639Z,5.10
2022-12-09T22:01:36.131Z,5.10
2022-12-09T22:04:05.945Z,5.10
2022-12-09T22:06:33.610Z,5.20
2022-12-09T22:09:02.875Z,5.20
2022-12-09T22:11:34.754Z,5.20
2022-12-09T22:14:03.252Z,5.20
2022-12-09T22:16:41.009Z,5.20
2022-12-09T22:19:13.638Z,5.20
2022-12-09T22:21:40.826Z,5.20
2022-12-09T22:24:09.826Z,5.20
2022-12-09T22:26:36.830Z,5.30
2022-12-09T22:29:06.582Z,5.30
2022-12-09T22:31:37.481Z,5.20
2022-12-09T22:34:17.929Z,5.20
2022-12-09T22:36:46.375Z,5.20
2022-12-09T22:39:17.894Z,5.20
2022-12-09T22:41:46.065Z,5.20
2022-12-09T22:44:17.008Z,5.10
2022-12-09T22:46:44.413Z,5.10
2022-12-09T22:49:14.031Z,5.30
2022-12-09T22:51:41.612Z,5.10
2022-12-09T22:54:10.257Z,5.10
2022-12-09T22:56:40.143Z,5.10
2022-12-09T22:59:07.452Z,5.10
2022-12-09T23:01:37.344Z,5.10
2022-12-09T23:04:06.971Z,5.10
2022-12-09T23:06:37.350Z,5.10
2022-12-09T23:09:07.563Z,5.20
2022-12-09T23:11:34.707Z,5.10
2022-12-09T23:14:02.290Z,5.10
2022-12-09T23:16:29.431Z,5.10
2022-12-09T23:18:58.575Z,5.10
2022-12-09T23:21:35.522Z,5.10
2022-12-09T23:24:07.542Z,5.10
2022-12-09T23:26:37.820Z,5.10
2022-12-09T23:29:07.847Z,5.20
2022-12-09T23:31:37.504Z,5.10
2022-12-09T23:34:07.023Z,5.10
2022-12-09T23:36:38.060Z,5.10
2022-12-09T23:39:09.754Z,5.10
2022-12-09T23:41:39.313Z,5.10
2022-12-09T23:44:16.341Z,5.10
2022-12-09T23:46:44.074Z,5.10
2022-12-09T23:49:10.973Z,5.20
2022-12-09T23:51:41.756Z,5.20
2022-12-09T23:54:09.847Z,5.20
2022-12-09T23:56:40.337Z,5.20
2022-12-09T23:59:11.484Z,5.20
